Time,TemperatureF,DewpointF,PressureIn,WindDirection,WindDirectionDegrees,WindSpeedMPH,WindSpeedGustMPH,Humidity,HourlyPrecipIn,Conditions,Clouds,dailyrainin,SoftwareType,DateUTC
2013-06-21 00:01:00,74.1,64.1,30.14,SSW,196,0.0,4.0,71,0.00,,---,0.00,VWS V14.01,2013-06-21 04:01:00,
2013-06-21 00:16:00,73.8,63.8,30.14,SSW,195,1.0,4.0,71,0.00,,---,0.00,VWS V14.01,2013-06-21 04:16:00,
2013-06-21 00:31:00,73.9,63.9,30.14,SE,134,2.0,5.0,71,0.00,,---,0.00,VWS V14.01,2013-06-21 04:31:00,
2013-06-21 00:46:00,73.9,63.9,30.14,SE,131,1.0,6.0,71,0.00,,---,0.00,VWS V14.01,2013-06-21 04:46:00,
2013-06-21 01:01:00,73.8,63.8,30.14,SE,125,3.0,6.0,71,0.00,,---,0.00,VWS V14.01,2013-06-21 05:01:00,
2013-06-21 01:16:00,73.4,63.4,30.14,SE,128,2.0,5.0,71,0.00,,---,0.00,VWS V14.01,2013-06-21 05:16:00,
2013-06-21 01:31:00,73.0,63.5,30.14,SE,128,3.0,4.0,72,0.00,,---,0.00,VWS V14.01,2013-06-21 05:31:00,
2013-06-21 01:46:00,72.5,63.4,30.14,SE,128,0.0,3.0,73,0.00,,---,0.00,VWS V14.01,2013-06-21 05:46:00,
2013-06-21 02:01:00,72.0,63.3,30.13,SE,128,3.0,3.0,74,0.00,,---,0.00,VWS V14.01,2013-06-21 06:01:00,
2013-06-21 02:16:00,71.5,63.2,30.13,SE,128,1.0,5.0,75,0.00,,---,0.00,VWS V14.01,2013-06-21 06:16:00,
2013-06-21 02:31:00,71.1,63.2,30.13,SE,128,1.0,3.0,76,0.00,,---,0.00,VWS V14.01,2013-06-21 06:31:00,
2013-06-21 02:46:00,70.6,62.7,30.13,SE,128,0.0,2.0,76,0.00,,---,0.00,VWS V14.01,2013-06-21 06:46:00,
2013-06-21 03:01:00,70.1,62.9,30.13,SE,128,0.0,1.0,78,0.00,,---,0.00,VWS V14.01,2013-06-21 07:01:00,
2013-06-21 03:16:00,69.3,62.5,30.12,SE,128,0.0,1.0,79,0.00,,---,0.00,VWS V14.01,2013-06-21 07:16:00,
2013-06-21 03:31:00,69.2,62.4,30.12,SE,128,0.0,3.0,79,0.00,,---,0.00,VWS V14.01,2013-06-21 07:31:00,
2013-06-21 03:46:00,69.3,62.5,30.12,SE,128,2.0,5.0,79,0.00,,---,0.00,VWS V14.01,2013-06-21 07:46:00,
2013-06-21 04:01:00,69.1,62.3,30.12,SE,128,0.0,3.0,79,0.00,,---,0.00,VWS V14.01,2013-06-21 08:01:00,
2013-06-21 04:16:00,68.7,62.3,30.11,SE,128,1.0,3.0,80,0.00,,---,0.00,VWS V14.01,2013-06-21 08:16:00,
2013-06-21 04:31:00,68.6,62.2,30.12,SE,128,1.0,4.0,80,0.00,,---,0.00,VWS V14.01,2013-06-21 08:31:00,
2013-06-21 04:46:00,68.3,61.9,30.12,SE,128,2.0,4.0,80,0.00,,---,0.00,VWS V14.01,2013-06-21 08:46:00,
2013-06-21 05:01:00,68.2,61.8,30.11,SE,128,0.0,3.0,80,0.00,,---,0.00,VWS V14.01,2013-06-21 09:01:00,
2013-06-21 05:16:00,68.0,62.0,30.11,SE,128,2.0,5.0,81,0.00,,---,0.00,VWS V14.01,2013-06-21 09:16:00,
2013-06-21 05:31:00,67.9,61.9,30.11,SE,128,1.0,5.0,81,0.00,,---,0.00,VWS V14.01,2013-06-21 09:31:00,
2013-06-21 05:46:00,67.7,61.7,30.12,SE,128,0.0,4.0,81,0.00,,---,0.00,VWS V14.01,2013-06-21 09:46:00,
2013-06-21 06:01:00,67.3,61.3,30.12,SW,226,2.0,4.0,81,0.00,,---,0.00,VWS V14.01,2013-06-21 10:01:00,
2013-06-21 06:16:00,67.4,61.4,30.12,SSW,206,0.0,4.0,81,0.00,,---,0.00,VWS V14.01,2013-06-21 10:16:00,
2013-06-21 06:31:00,67.5,61.1,30.12,SSW,208,2.0,4.0,80,0.00,,---,0.00,VWS V14.01,2013-06-21 10:31:00,
2013-06-21 06:46:00,67.8,61.1,30.11,South,187,4.0,7.0,79,0.00,,---,0.00,VWS V14.01,2013-06-21 10:46:00,
2013-06-21 07:01:00,68.3,60.8,30.11,SSW,210,3.0,7.0,77,0.00,,---,0.00,VWS V14.01,2013-06-21 11:01:00,
2013-06-21 07:16:00,68.6,61.1,30.12,South,186,0.0,7.0,77,0.00,,---,0.00,VWS V14.01,2013-06-21 11:16:00,
2013-06-21 07:31:00,69.1,60.8,30.14,SW,228,3.0,7.0,75,0.00,,---,0.00,VWS V14.01,2013-06-21 11:31:00,
2013-06-21 07:46:00,69.6,61.3,30.14,SSW,202,0.0,4.0,75,0.00,,---,0.00,VWS V14.01,2013-06-21 11:46:00,
2013-06-21 08:01:00,70.2,61.2,30.16,SSW,212,0.0,4.0,73,0.00,,---,0.00,VWS V14.01,2013-06-21 12:01:00,
2013-06-21 08:16:00,70.9,61.4,30.14,South,188,5.0,6.0,72,0.00,,---,0.00,VWS V14.01,2013-06-21 12:16:00,
2013-06-21 08:31:00,71.8,61.9,30.12,South,184,9.0,9.0,71,0.00,,---,0.00,VWS V14.01,2013-06-21 12:31:00,
2013-06-21 08:46:00,73.1,61.9,30.11,SSW,204,3.0,10.0,68,0.00,,---,0.00,VWS V14.01,2013-06-21 12:46:00,
2013-06-21 09:01:00,74.0,62.8,30.12,SSW,199,2.0,10.0,68,0.00,,---,0.00,VWS V14.01,2013-06-21 13:01:00,
2013-06-21 09:16:00,74.8,62.3,30.12,South,177,6.0,10.0,65,0.00,,---,0.00,VWS V14.01,2013-06-21 13:16:00,
2013-06-21 09:31:00,75.8,63.6,30.13,SSW,194,5.0,10.0,66,0.00,,---,0.00,VWS V14.01,2013-06-21 13:31:00,
2013-06-21 09:46:00,76.9,63.8,30.13,South,181,1.0,10.0,64,0.00,,---,0.00,VWS V14.01,2013-06-21 13:46:00,
2013-06-21 10:01:00,77.6,63.1,30.13,SW,222,8.0,11.0,61,0.00,,---,0.00,VWS V14.01,2013-06-21 14:01:00,
2013-06-21 10:16:00,78.3,63.3,30.12,WSW,238,6.0,12.0,60,0.00,,---,0.00,VWS V14.01,2013-06-21 14:16:00,
2013-06-21 10:31:00,78.9,63.8,30.13,SSW,194,7.0,12.0,60,0.00,,---,0.00,VWS V14.01,2013-06-21 14:31:00,
2013-06-21 10:46:00,79.2,63.7,30.13,SSW,195,5.0,14.0,59,0.00,,---,0.00,VWS V14.01,2013-06-21 14:46:00,
2013-06-21 11:01:00,80.1,63.5,30.14,SE,142,3.0,11.0,57,0.00,,---,0.00,VWS V14.01,2013-06-21 15:01:00,
2013-06-21 11:16:00,80.7,64.6,30.13,SSE,160,3.0,13.0,58,0.00,,---,0.00,VWS V14.01,2013-06-21 15:16:00,
2013-06-21 11:31:00,81.3,65.1,30.12,SSW,198,4.0,11.0,58,0.00,,---,0.00,VWS V14.01,2013-06-21 15:31:00,
2013-06-21 11:46:00,81.6,64.9,30.12,SE,144,2.0,11.0,57,0.00,,---,0.00,VWS V14.01,2013-06-21 15:46:00,
2013-06-21 12:01:00,81.6,64.4,30.12,SSW,213,3.0,14.0,56,0.00,,---,0.00,VWS V14.01,2013-06-21 16:01:00,
2013-06-21 12:16:00,81.9,64.7,30.11,South,188,8.0,13.0,56,0.00,,---,0.00,VWS V14.01,2013-06-21 16:16:00,
2013-06-21 12:31:00,82.1,64.3,30.10,SSE,157,8.0,13.0,55,0.00,,---,0.00,VWS V14.01,2013-06-21 16:31:00,
2013-06-21 12:46:00,82.8,65.5,30.12,SSE,153,4.0,12.0,56,0.00,,---,0.00,VWS V14.01,2013-06-21 16:46:00,
2013-06-21 13:01:00,83.2,65.4,30.12,South,178,3.0,13.0,55,0.00,,---,0.00,VWS V14.01,2013-06-21 17:01:00,
2013-06-21 13:16:00,83.3,63.9,30.12,South,182,3.0,12.0,52,0.00,,---,0.00,VWS V14.01,2013-06-21 17:16:00,
2013-06-21 13:31:00,83.7,64.2,30.12,SSW,198,7.0,13.0,52,0.00,,---,0.00,VWS V14.01,2013-06-21 17:31:00,
2013-06-21 13:46:00,84.1,64.0,30.12,SE,132,6.0,12.0,51,0.00,,---,0.00,VWS V14.01,2013-06-21 17:46:00,
2013-06-21 14:01:00,84.0,62.8,30.13,South,188,6.0,15.0,49,0.00,,---,0.00,VWS V14.01,2013-06-21 18:01:00,
2013-06-21 14:31:00,84.1,63.5,30.12,WSW,254,4.0,13.0,50,0.00,,---,0.00,VWS V14.01,2013-06-21 18:31:00,
2013-06-21 14:46:00,84.4,62.6,30.12,South,188,5.0,11.0,48,0.00,,---,0.00,VWS V14.01,2013-06-21 18:46:00,
2013-06-21 15:01:00,84.4,63.2,30.11,South,187,4.0,10.0,49,0.00,,---,0.00,VWS V14.01,2013-06-21 19:01:00,
2013-06-21 15:16:00,84.3,62.5,30.10,South,179,1.0,8.0,48,0.00,,---,0.00,VWS V14.01,2013-06-21 19:16:00,
2013-06-21 15:31:00,84.4,62.6,30.10,SW,214,6.0,10.0,48,0.00,,---,0.00,VWS V14.01,2013-06-21 19:31:00,
2013-06-21 16:01:00,83.7,62.0,30.10,SSW,195,2.0,6.0,48,0.00,,---,0.00,VWS V14.01,2013-06-21 20:01:00,
2013-06-21 16:16:00,73.6,65.9,30.14,West,275,11.0,24.0,77,0.00,,---,0.00,VWS V14.01,2013-06-21 20:16:00,
2013-06-21 16:31:00,69.0,65.9,30.14,West,264,10.0,17.0,90,0.02,,---,0.02,VWS V14.01,2013-06-21 20:31:00,
2013-06-21 16:46:00,68.2,63.9,30.14,West,281,5.0,20.0,86,0.05,,---,0.05,VWS V14.01,2013-06-21 20:46:00,
2013-06-21 17:01:00,68.0,65.0,30.11,West,279,3.0,6.0,90,0.08,,---,0.08,VWS V14.01,2013-06-21 21:01:00,
2013-06-21 17:16:00,67.3,64.6,30.06,South,169,5.0,11.0,91,0.11,,---,0.11,VWS V14.01,2013-06-21 21:16:00,
2013-06-21 17:31:00,67.4,64.7,30.01,SSE,159,2.0,7.0,91,0.13,,---,0.13,VWS V14.01,2013-06-21 21:31:00,
2013-06-21 18:01:00,68.5,66.1,29.98,SE,140,3.0,13.0,92,0.12,,---,0.17,VWS V14.01,2013-06-21 22:01:00,
2013-06-21 18:16:00,69.7,66.6,29.98,ESE,119,2.0,11.0,90,0.10,,---,0.18,VWS V14.01,2013-06-21 22:16:00,
2013-06-21 18:31:00,70.3,66.9,29.97,SW,234,1.0,10.0,89,0.08,,---,0.19,VWS V14.01,2013-06-21 22:31:00,
2013-06-21 18:46:00,70.5,66.8,29.99,SSE,158,0.0,8.0,88,0.07,,---,0.20,VWS V14.01,2013-06-21 22:46:00,
2013-06-21 19:01:00,70.5,66.8,30.00,SE,127,0.0,5.0,88,0.06,,---,0.21,VWS V14.01,2013-06-21 23:01:00,
2013-06-21 19:16:00,70.6,67.2,30.01,North,355,0.0,5.0,89,0.05,,---,0.22,VWS V14.01,2013-06-21 23:16:00,
2013-06-21 19:31:00,70.9,67.5,30.01,ENE,67,4.0,4.0,89,0.04,,---,0.22,VWS V14.01,2013-06-21 23:31:00,
2013-06-21 19:46:00,71.1,67.4,30.01,SSE,148,3.0,7.0,88,0.04,,---,0.23,VWS V14.01,2013-06-21 23:46:00,
2013-06-21 20:01:00,71.2,66.8,30.01,West,281,0.0,4.0,86,0.04,,---,0.24,VWS V14.01,2013-06-22 00:01:00,
2013-06-21 20:16:00,71.1,67.0,30.01,West,267,1.0,2.0,87,0.03,,---,0.24,VWS V14.01,2013-06-22 00:16:00,
2013-06-21 20:31:00,70.9,67.2,30.01,West,267,0.0,2.0,88,0.02,,---,0.24,VWS V14.01,2013-06-22 00:31:00,
2013-06-21 20:46:00,70.8,66.7,30.01,West,273,2.0,5.0,87,0.03,,---,0.25,VWS V14.01,2013-06-22 00:46:00,
2013-06-21 21:01:00,70.8,66.1,30.01,SW,221,0.0,3.0,85,0.02,,---,0.25,VWS V14.01,2013-06-22 01:01:00,
2013-06-21 21:16:00,70.4,66.3,30.03,West,263,3.0,4.0,87,0.02,,---,0.26,VWS V14.01,2013-06-22 01:16:00,
2013-06-21 21:31:00,70.0,66.0,30.03,West,263,1.0,4.0,87,0.02,,---,0.26,VWS V14.01,2013-06-22 01:31:00,
2013-06-21 21:46:00,69.8,65.8,30.04,SW,226,1.0,4.0,87,0.02,,---,0.26,VWS V14.01,2013-06-22 01:46:00,
2013-06-21 22:01:00,69.6,65.6,30.04,SW,223,0.0,3.0,87,0.01,,---,0.26,VWS V14.01,2013-06-22 02:01:00,
2013-06-21 22:16:00,69.1,65.4,30.04,SW,223,0.0,1.0,88,0.01,,---,0.26,VWS V14.01,2013-06-22 02:16:00,
2013-06-21 22:31:00,68.7,65.3,30.05,SW,223,0.0,1.0,89,0.00,,---,0.26,VWS V14.01,2013-06-22 02:31:00,
2013-06-21 22:46:00,68.3,65.3,30.05,SW,223,0.0,2.0,90,0.00,,---,0.26,VWS V14.01,2013-06-22 02:46:00,
2013-06-21 23:01:00,68.0,65.0,30.06,SW,223,0.0,1.0,90,0.01,,---,0.27,VWS V14.01,2013-06-22 03:01:00,
2013-06-21 23:16:00,67.4,65.0,30.07,SW,223,0.0,0.0,92,0.01,,---,0.27,VWS V14.01,2013-06-22 03:16:00,
2013-06-21 23:31:00,67.2,64.8,30.08,SW,223,0.0,1.0,92,0.01,,---,0.27,VWS V14.01,2013-06-22 03:31:00,
2013-06-21 23:46:00,67.1,65.0,30.09,SW,223,1.0,3.0,93,0.01,,---,0.27,VWS V14.01,2013-06-22 03:46:00,